createdAt,value
2023-08-01T00:00:19.894Z,9.50
2023-08-01T00:01:23.181Z,7.22
2023-08-01T00:02:25.559Z,9.05
2023-08-01T00:03:27.800Z,8.60
2023-08-01T00:04:30.233Z,8.15
2023-08-01T00:05:32.513Z,9.40
2023-08-01T00:06:34.816Z,8.73
2023-08-01T00:07:38.409Z,7.30
2023-08-01T00:08:40.703Z,5.80
2023-08-01T00:09:42.926Z,9.00
2023-08-01T00:10:45.179Z,10.05
2023-08-01T00:11:47.510Z,9.57
2023-08-01T00:12:49.802Z,10.90
2023-08-01T00:13:52.004Z,9.15
2023-08-01T00:14:54.188Z,8.93
2023-08-01T00:16:06.670Z,7.60
2023-08-01T00:17:09.573Z,8.40
2023-08-01T00:18:11.880Z,11.13
2023-08-01T00:19:14.100Z,9.88
2023-08-01T00:20:16.597Z,7.90
2023-08-01T00:21:18.945Z,8.52
2023-08-01T00:22:21.186Z,10.07
2023-08-01T00:23:23.431Z,8.20
2023-08-01T00:24:26.305Z,9.45
2023-08-01T00:25:28.553Z,7.50
2023-08-01T00:26:30.782Z,8.52
2023-08-01T00:27:40.183Z,8.52
2023-08-01T00:28:42.920Z,6.88
2023-08-01T00:29:45.874Z,10.18
2023-08-01T00:30:48.122Z,8.30
2023-08-01T00:31:50.670Z,7.25
2023-08-01T00:32:52.927Z,7.72
2023-08-01T00:33:55.389Z,9.05
2023-08-01T00:34:57.678Z,8.55
2023-08-01T00:35:59.937Z,8.65
2023-08-01T00:37:02.230Z,9.70
2023-08-01T00:38:04.466Z,7.10
2023-08-01T00:39:06.823Z,8.93
2023-08-01T00:40:09.545Z,6.80
2023-08-01T00:41:12.413Z,5.65
2023-08-01T00:42:14.603Z,8.80
2023-08-01T00:43:16.965Z,7.28
2023-08-01T00:44:19.263Z,11.02
2023-08-01T00:45:21.491Z,7.53
2023-08-01T00:46:23.795Z,8.88
2023-08-01T00:47:26.025Z,6.45
2023-08-01T00:48:29.569Z,7.82
2023-08-01T00:49:35.061Z,8.63
2023-08-01T00:50:38.886Z,7.32
2023-08-01T00:51:42.523Z,7.65
2023-08-01T00:52:44.803Z,7.70
2023-08-01T00:53:47.535Z,6.70
2023-08-01T00:54:50.000Z,6.85
2023-08-01T00:55:56.554Z,8.93
2023-08-01T00:56:59.779Z,7.50
2023-08-01T00:58:02.238Z,11.05
2023-08-01T00:59:06.329Z,9.85
2023-08-01T01:00:09.165Z,6.78
2023-08-01T01:01:11.418Z,6.38
2023-08-01T01:02:13.702Z,7.90
2023-08-01T01:03:16.176Z,8.90
2023-08-01T01:04:18.490Z,12.38
2023-08-01T01:05:22.715Z,7.20
2023-08-01T01:06:42.157Z,7.93
2023-08-01T01:07:44.844Z,8.05
2023-08-01T01:08:47.100Z,9.02
2023-08-01T01:09:49.464Z,8.02
2023-08-01T01:10:52.001Z,7.50
2023-08-01T01:11:54.204Z,8.93
2023-08-01T01:12:56.558Z,9.60
2023-08-01T01:13:58.915Z,7.55
2023-08-01T01:15:01.171Z,7.97
2023-08-01T01:16:03.987Z,7.47
2023-08-01T01:17:06.528Z,10.02
2023-08-01T01:18:08.872Z,11.90
2023-08-01T01:19:11.175Z,9.98
2023-08-01T01:20:13.405Z,6.85
2023-08-01T01:21:15.630Z,8.23
2023-08-01T01:22:18.045Z,11.68
2023-08-01T01:23:22.367Z,7.47
2023-08-01T01:24:27.133Z,6.10
2023-08-01T01:25:29.860Z,7.25
2023-08-01T01:26:33.937Z,10.15
2023-08-01T01:27:38.979Z,9.27
2023-08-01T01:28:43.527Z,7.72
2023-08-01T01:29:47.459Z,9.10
2023-08-01T01:30:50.751Z,13.57
2023-08-01T01:31:53.701Z,7.13
2023-08-01T01:32:56.559Z,8.52
2023-08-01T01:33:59.450Z,10.13
2023-08-01T01:35:04.115Z,7.63
2023-08-01T01:36:07.016Z,9.77
2023-08-01T01:37:11.523Z,7.97
2023-08-01T01:38:14.125Z,8.20
2023-08-01T01:39:16.350Z,8.20
2023-08-01T01:40:18.652Z,7.22
2023-08-01T01:41:21.046Z,8.35
2023-08-01T01:42:23.596Z,11.35
2023-08-01T01:43:25.850Z,6.65
2023-08-01T01:44:28.988Z,8.02
2023-08-01T01:45:31.188Z,6.55
2023-08-01T01:46:33.618Z,8.57
2023-08-01T01:47:35.928Z,7.05
2023-08-01T01:48:38.152Z,9.77
2023-08-01T01:49:40.441Z,11.38
2023-08-01T01:50:42.724Z,7.25
2023-08-01T01:51:45.096Z,7.35
2023-08-01T01:52:47.406Z,6.47
2023-08-01T01:53:49.724Z,7.50
2023-08-01T01:54:52.505Z,7.45
2023-08-01T01:55:54.738Z,9.75
2023-08-01T01:56:56.967Z,11.48
2023-08-01T01:57:59.239Z,7.75
2023-08-01T01:59:01.494Z,9.45
2023-08-01T02:02:09.904Z,7.45
2023-08-01T02:03:13.844Z,6.47
2023-08-01T02:04:16.122Z,9.00
2023-08-01T02:05:18.455Z,12.73
2023-08-01T02:06:20.733Z,11.10
2023-08-01T02:07:23.001Z,7.10
2023-08-01T02:08:25.218Z,6.85
2023-08-01T02:09:27.471Z,8.95
2023-08-01T02:10:30.093Z,7.80
2023-08-01T02:11:32.326Z,6.55
2023-08-01T02:12:36.646Z,7.75
2023-08-01T02:13:40.002Z,7.47
2023-08-01T02:14:42.732Z,7.75
2023-08-01T02:15:44.988Z,7.43
2023-08-01T02:16:47.323Z,13.10
2023-08-01T02:17:50.136Z,7.95
2023-08-01T02:18:52.440Z,7.95
2023-08-01T02:19:54.654Z,9.68
2023-08-01T02:20:56.927Z,8.38
2023-08-01T02:21:59.300Z,7.10
2023-08-01T02:23:01.518Z,8.68
2023-08-01T02:24:04.285Z,9.35
2023-08-01T02:25:06.782Z,6.55
2023-08-01T02:26:09.483Z,7.15
2023-08-01T02:27:11.699Z,7.30
2023-08-01T02:28:14.087Z,8.05
2023-08-01T02:29:16.475Z,7.00
2023-08-01T02:30:18.736Z,8.05
2023-08-01T02:31:21.007Z,6.28
2023-08-01T02:32:23.444Z,8.40
2023-08-01T02:33:26.974Z,8.70
2023-08-01T02:34:29.244Z,10.77
2023-08-01T02:35:32.123Z,9.63
2023-08-01T02:36:34.345Z,7.88
2023-08-01T02:37:36.580Z,8.98
2023-08-01T02:38:39.198Z,7.95
2023-08-01T02:39:41.560Z,6.40
2023-08-01T02:40:44.196Z,8.68
2023-08-01T02:41:46.555Z,7.80
2023-08-01T02:42:49.153Z,6.68
2023-08-01T02:43:51.422Z,10.18
2023-08-01T02:44:53.622Z,7.00
2023-08-01T02:45:56.052Z,7.55
2023-08-01T02:47:01.245Z,5.93
2023-08-01T02:48:03.608Z,8.18
2023-08-01T02:49:05.803Z,10.63
2023-08-01T02:50:08.550Z,7.20
2023-08-01T02:51:11.077Z,9.05
2023-08-01T02:52:13.471Z,10.02
2023-08-01T02:53:15.686Z,7.47
2023-08-01T02:54:18.075Z,7.50
2023-08-01T02:55:20.343Z,8.07
2023-08-01T02:56:22.588Z,10.75
2023-08-01T02:57:25.307Z,8.13
2023-08-01T02:58:27.767Z,7.65
2023-08-01T02:59:30.179Z,10.32
2023-08-01T03:00:33.035Z,8.38
2023-08-01T03:01:36.610Z,8.52
2023-08-01T03:02:40.542Z,8.35
2023-08-01T03:03:43.021Z,8.13
2023-08-01T03:04:47.093Z,10.20
2023-08-01T03:05:49.846Z,8.15
2023-08-01T03:06:52.024Z,8.82
2023-08-01T03:07:54.303Z,8.85
2023-08-01T03:08:56.581Z,6.00
2023-08-01T03:09:59.072Z,7.47
2023-08-01T03:11:01.251Z,7.50
2023-08-01T03:12:03.704Z,9.23
2023-08-01T03:13:06.067Z,7.72
2023-08-01T03:14:08.285Z,8.40
2023-08-01T03:15:10.706Z,9.15
2023-08-01T03:16:13.026Z,6.30
2023-08-01T03:17:15.340Z,10.63
2023-08-01T03:18:18.148Z,12.05
2023-08-01T03:19:20.424Z,8.85
2023-08-01T03:20:23.845Z,9.10
2023-08-01T03:21:27.658Z,9.38
2023-08-01T03:22:30.124Z,7.47
2023-08-01T03:23:32.368Z,9.38
2023-08-01T03:24:34.619Z,8.40
2023-08-01T03:25:36.904Z,7.78
2023-08-01T03:26:39.411Z,7.88
2023-08-01T03:27:41.831Z,9.00
2023-08-01T03:28:44.291Z,7.82
2023-08-01T03:29:46.543Z,8.18
2023-08-01T03:30:51.453Z,11.77
2023-08-01T03:31:54.206Z,7.30
2023-08-01T03:32:56.585Z,8.98
2023-08-01T03:33:59.479Z,9.05
2023-08-01T03:35:01.804Z,9.38
2023-08-01T03:36:04.983Z,7.47
2023-08-01T03:37:07.316Z,9.18
2023-08-01T03:38:09.559Z,6.38
2023-08-01T03:39:12.813Z,7.55
2023-08-01T03:40:15.200Z,9.60
2023-08-01T03:41:17.575Z,8.02
2023-08-01T03:42:19.854Z,8.75
2023-08-01T03:43:24.729Z,8.02
2023-08-01T03:44:27.212Z,7.15
2023-08-01T03:45:29.531Z,9.80
2023-08-01T03:46:31.828Z,7.65
2023-08-01T03:47:34.305Z,9.48
2023-08-01T03:48:37.517Z,8.90
2023-08-01T03:49:39.818Z,7.85
2023-08-01T03:50:42.053Z,9.57
2023-08-01T03:51:44.270Z,5.75
2023-08-01T03:52:47.912Z,8.57
2023-08-01T03:54:03.254Z,10.65
2023-08-01T03:55:13.473Z,8.93
2023-08-01T03:56:15.749Z,7.60
2023-08-01T03:57:17.995Z,10.82
2023-08-01T03:58:20.221Z,7.15
2023-08-01T03:59:22.394Z,8.80
2023-08-01T04:00:24.771Z,10.90
2023-08-01T04:01:27.269Z,5.68
2023-08-01T04:02:30.053Z,8.73
2023-08-01T04:03:33.033Z,6.85
2023-08-01T04:04:35.279Z,6.90
2023-08-01T04:05:37.547Z,7.40
2023-08-01T04:06:40.231Z,6.68
2023-08-01T04:07:42.869Z,8.80
2023-08-01T04:08:45.016Z,8.18
2023-08-01T04:09:47.373Z,10.30
2023-08-01T04:10:51.026Z,8.50
2023-08-01T04:11:53.326Z,6.88
2023-08-01T04:12:55.490Z,11.25
2023-08-01T04:13:57.716Z,8.63
2023-08-01T04:15:00.451Z,9.25
2023-08-01T04:16:02.740Z,14.07
2023-08-01T04:17:05.151Z,8.80
2023-08-01T04:18:07.530Z,9.80
2023-08-01T04:19:10.792Z,7.43
2023-08-01T04:20:13.746Z,9.70
2023-08-01T04:21:17.196Z,9.57
2023-08-01T04:22:19.528Z,9.55
2023-08-01T04:23:21.806Z,12.50
2023-08-01T04:24:26.270Z,9.88
2023-08-01T04:25:28.786Z,7.18
2023-08-01T04:26:31.081Z,5.97
2023-08-01T04:27:33.415Z,8.13
2023-08-01T04:28:36.048Z,7.25
2023-08-01T04:29:38.376Z,6.97
2023-08-01T04:30:40.669Z,13.35
2023-08-01T04:31:42.902Z,7.78
2023-08-01T04:32:45.191Z,10.43
2023-08-01T04:33:47.457Z,6.55
2023-08-01T04:34:49.749Z,7.22
2023-08-01T04:35:52.146Z,10.23
2023-08-01T04:36:54.485Z,6.25
2023-08-01T04:37:56.721Z,7.82
2023-08-01T04:38:58.916Z,9.18
2023-08-01T04:40:02.042Z,6.80
2023-08-01T04:41:04.617Z,9.10
2023-08-01T04:42:07.177Z,8.23
2023-08-01T04:43:10.858Z,9.48
2023-08-01T04:44:13.038Z,9.27
2023-08-01T04:45:15.425Z,9.32
2023-08-01T04:46:17.694Z,9.27
2023-08-01T04:47:20.282Z,10.80
2023-08-01T04:48:22.595Z,13.38
2023-08-01T04:49:25.402Z,8.48
2023-08-01T04:50:27.632Z,9.93
2023-08-01T04:51:29.976Z,9.00
2023-08-01T04:52:32.283Z,9.10
2023-08-01T04:53:34.462Z,9.65
2023-08-01T04:54:36.750Z,9.02
2023-08-01T04:55:39.134Z,13.23
2023-08-01T04:56:41.637Z,8.38
2023-08-01T04:57:44.304Z,11.05
2023-08-01T04:58:46.591Z,9.23
2023-08-01T04:59:48.805Z,7.68
2023-08-01T05:00:51.172Z,7.40
2023-08-01T05:01:53.517Z,8.82
2023-08-01T05:02:55.775Z,7.65
2023-08-01T05:03:59.086Z,6.50
2023-08-01T05:05:01.642Z,10.48
2023-08-01T05:06:04.225Z,8.70
2023-08-01T05:07:07.184Z,8.15
2023-08-01T05:08:09.437Z,7.40
2023-08-01T05:09:11.615Z,12.35
2023-08-01T05:10:15.212Z,8.65
2023-08-01T05:11:19.461Z,9.98
2023-08-01T05:12:22.016Z,8.23
2023-08-01T05:13:24.563Z,7.85
2023-08-01T05:14:26.807Z,12.50
2023-08-01T05:15:31.609Z,9.45
2023-08-01T05:16:34.192Z,11.05
2023-08-01T05:17:36.517Z,6.88
2023-08-01T05:18:38.792Z,16.40
2023-08-01T05:19:41.222Z,8.90
2023-08-01T05:20:43.799Z,10.88
2023-08-01T05:21:47.377Z,9.02
2023-08-01T05:22:49.735Z,10.85
2023-08-01T05:23:52.049Z,10.10
2023-08-01T05:24:54.273Z,8.15
2023-08-01T05:25:56.536Z,11.55
2023-08-01T05:26:58.756Z,12.98
2023-08-01T05:28:01.098Z,10.30
2023-08-01T05:29:03.324Z,9.35
2023-08-01T05:30:05.995Z,7.82
2023-08-01T05:31:08.281Z,11.48
2023-08-01T05:32:10.505Z,12.35
2023-08-01T05:33:12.826Z,9.65
2023-08-01T05:34:15.064Z,10.23
2023-08-01T05:35:18.411Z,9.75
2023-08-01T05:36:21.064Z,9.38
2023-08-01T05:37:23.237Z,12.55
2023-08-01T05:38:25.445Z,7.60
2023-08-01T05:39:27.712Z,8.55
2023-08-01T05:40:29.939Z,9.38
2023-08-01T05:41:32.213Z,9.82
2023-08-01T05:42:34.478Z,7.57
2023-08-01T05:43:36.697Z,11.02
2023-08-01T05:44:38.912Z,8.75
2023-08-01T05:45:41.188Z,12.57
2023-08-01T05:46:43.763Z,8.27
2023-08-01T05:47:46.245Z,10.18
2023-08-01T05:48:48.445Z,9.13
2023-08-01T05:49:50.734Z,9.40
2023-08-01T05:50:54.319Z,9.95
2023-08-01T05:51:56.570Z,9.98
2023-08-01T05:52:58.757Z,10.15
2023-08-01T05:54:01.016Z,8.77
2023-08-01T05:55:03.346Z,9.18
2023-08-01T05:56:05.807Z,10.13
2023-08-01T05:57:08.858Z,12.65
2023-08-01T05:58:11.144Z,10.32
2023-08-01T05:59:13.388Z,11.73
2023-08-01T06:00:16.194Z,11.23
2023-08-01T06:01:18.511Z,9.23
2023-08-01T06:02:20.911Z,9.85
2023-08-01T06:03:23.375Z,11.07
2023-08-01T06:04:25.783Z,14.48
2023-08-01T06:05:28.133Z,9.77
2023-08-01T06:06:30.382Z,10.20
2023-08-01T06:07:32.572Z,11.10
2023-08-01T06:08:34.778Z,12.70
2023-08-01T06:09:37.065Z,14.73
2023-08-01T06:10:39.262Z,11.48
2023-08-01T06:11:41.632Z,13.57
2023-08-01T06:12:43.945Z,10.57
2023-08-01T06:13:46.220Z,11.00
2023-08-01T06:14:49.220Z,11.07
2023-08-01T06:15:51.512Z,8.95
2023-08-01T06:16:54.392Z,9.00
2023-08-01T06:17:56.656Z,11.43
2023-08-01T06:18:59.513Z,11.35
2023-08-01T06:20:05.110Z,10.77
2023-08-01T06:21:07.977Z,9.95
2023-08-01T06:22:10.343Z,12.38
2023-08-01T06:23:12.580Z,11.63
2023-08-01T06:24:14.813Z,17.30
2023-08-01T06:25:17.859Z,9.90
2023-08-01T06:26:20.092Z,12.55
2023-08-01T06:27:22.316Z,11.20
2023-08-01T06:28:24.779Z,10.35
2023-08-01T06:29:27.104Z,10.60
2023-08-01T06:30:29.569Z,11.18
2023-08-01T06:31:31.836Z,11.90
2023-08-01T06:32:34.161Z,11.32
2023-08-01T06:33:36.348Z,15.05
2023-08-01T06:34:38.542Z,10.57
2023-08-01T06:35:40.737Z,8.93
2023-08-01T06:36:43.142Z,9.10
2023-08-01T06:37:45.574Z,9.32
2023-08-01T06:38:47.912Z,10.55
2023-08-01T06:39:50.222Z,10.57
2023-08-01T06:40:52.530Z,11.98
2023-08-01T06:41:54.744Z,10.77
2023-08-01T06:42:57.012Z,9.38
2023-08-01T06:43:59.250Z,9.82
2023-08-01T06:45:01.556Z,8.23
2023-08-01T06:46:04.536Z,8.93
2023-08-01T06:47:06.864Z,10.18
2023-08-01T06:48:09.662Z,7.82
2023-08-01T06:49:11.942Z,9.93
2023-08-01T06:50:14.217Z,9.85
2023-08-01T06:51:16.448Z,7.40
2023-08-01T06:52:18.719Z,9.15
2023-08-01T06:53:21.232Z,9.15
2023-08-01T06:54:23.395Z,11.50
2023-08-01T06:55:25.606Z,8.77
2023-08-01T06:56:27.865Z,10.00
2023-08-01T06:57:30.236Z,9.57
2023-08-01T06:58:32.447Z,8.98
2023-08-01T06:59:34.711Z,8.95
2023-08-01T07:00:37.584Z,8.52
2023-08-01T07:01:41.667Z,7.70
2023-08-01T07:02:43.998Z,9.15
2023-08-01T07:03:46.896Z,6.63
2023-08-01T07:04:49.240Z,8.00
2023-08-01T07:05:51.457Z,8.80
2023-08-01T07:06:55.068Z,8.15
2023-08-01T07:07:59.089Z,8.65
2023-08-01T07:09:01.312Z,9.73
2023-08-01T07:10:03.581Z,6.80
2023-08-01T07:11:06.240Z,8.35
2023-08-01T07:12:08.781Z,7.80
2023-08-01T07:13:10.975Z,9.55
2023-08-01T07:14:13.238Z,7.68
2023-08-01T07:15:15.645Z,7.78
2023-08-01T07:16:17.859Z,6.50
2023-08-01T07:17:20.159Z,8.10
2023-08-01T07:18:22.406Z,7.75
2023-08-01T07:19:24.715Z,8.15
2023-08-01T07:20:27.002Z,8.45
2023-08-01T07:21:30.062Z,7.28
2023-08-01T07:22:32.344Z,7.03
2023-08-01T07:23:36.478Z,6.78
2023-08-01T07:24:38.718Z,7.63
2023-08-01T07:25:40.961Z,7.38
2023-08-01T07:26:47.292Z,9.32
2023-08-01T07:27:49.547Z,9.07
2023-08-01T07:28:54.646Z,9.20
2023-08-01T07:29:57.603Z,8.23
2023-08-01T07:31:05.628Z,7.75
2023-08-01T07:32:08.195Z,8.25
2023-08-01T07:33:12.184Z,7.03
2023-08-01T07:34:14.747Z,6.85
2023-08-01T07:35:17.436Z,8.10
2023-08-01T07:36:20.515Z,6.47
2023-08-01T07:37:22.845Z,7.43
2023-08-01T07:38:25.538Z,6.57
2023-08-01T07:39:27.839Z,9.77
2023-08-01T07:40:33.603Z,6.57
2023-08-01T07:41:36.438Z,7.68
2023-08-01T07:42:38.639Z,7.00
2023-08-01T07:43:40.909Z,7.13
2023-08-01T07:44:43.126Z,6.65
2023-08-01T07:45:46.007Z,5.70
2023-08-01T07:46:48.431Z,4.82
2023-08-01T07:47:51.031Z,8.45
2023-08-01T07:48:55.077Z,7.35
2023-08-01T07:49:57.270Z,7.13
2023-08-01T07:50:59.706Z,6.35
2023-08-01T07:52:02.269Z,7.28
2023-08-01T07:53:08.600Z,7.10
2023-08-01T07:54:12.107Z,5.15
2023-08-01T07:55:14.473Z,4.40
2023-08-01T07:56:17.516Z,6.90
2023-08-01T07:57:23.019Z,9.52
2023-08-01T07:58:25.985Z,5.18
2023-08-01T07:59:28.289Z,4.65
2023-08-01T08:00:31.468Z,5.15
2023-08-01T08:01:33.869Z,5.22
2023-08-01T08:02:39.574Z,4.70
2023-08-01T08:03:42.155Z,5.88
2023-08-01T08:04:45.934Z,4.28
2023-08-01T08:05:48.847Z,5.25
2023-08-01T08:06:53.050Z,6.15
2023-08-01T08:07:55.221Z,5.00
2023-08-01T08:08:57.751Z,3.92
2023-08-01T08:10:04.297Z,5.82
2023-08-01T08:11:07.303Z,5.53
2023-08-01T08:12:09.600Z,3.75
2023-08-01T08:13:11.770Z,4.03
2023-08-01T08:14:15.601Z,3.90
2023-08-01T08:15:24.729Z,2.58
2023-08-01T08:16:27.961Z,3.92
2023-08-01T08:17:30.326Z,3.42
2023-08-01T08:18:32.647Z,4.13
2023-08-01T08:19:34.833Z,4.82
2023-08-01T08:20:43.898Z,4.40
2023-08-01T08:21:46.199Z,5.55
2023-08-01T08:22:48.448Z,7.10
2023-08-01T08:23:50.631Z,5.05
2023-08-01T08:24:52.792Z,5.25
2023-08-01T08:25:55.000Z,4.22
2023-08-01T08:26:57.354Z,2.65
2023-08-01T08:28:00.433Z,3.15
2023-08-01T08:29:02.851Z,4.05
2023-08-01T08:30:06.126Z,2.95
2023-08-01T08:31:08.616Z,3.70
2023-08-01T08:32:10.798Z,2.70
2023-08-01T08:33:20.807Z,4.13
2023-08-01T08:34:23.060Z,1.90
2023-08-01T08:35:25.311Z,2.22
2023-08-01T08:36:27.522Z,1.77
2023-08-01T08:37:29.812Z,3.40
2023-08-01T08:38:32.097Z,3.30
2023-08-01T08:39:34.422Z,2.58
2023-08-01T08:40:42.592Z,2.80
2023-08-01T08:41:49.961Z,4.43
2023-08-01T08:42:54.805Z,1.70
2023-08-01T08:44:01.029Z,2.55
2023-08-01T08:45:05.318Z,3.72
2023-08-01T08:46:10.078Z,2.22
2023-08-01T08:47:13.739Z,2.90
2023-08-01T08:48:20.752Z,2.45
2023-08-01T08:49:23.253Z,3.13
2023-08-01T08:50:26.950Z,2.20
2023-08-01T08:51:29.890Z,2.63
2023-08-01T08:52:32.166Z,2.08
2023-08-01T08:53:36.486Z,4.60
2023-08-01T08:54:39.968Z,3.67
2023-08-01T08:55:42.528Z,3.65
2023-08-01T08:56:45.203Z,4.03
2023-08-01T08:57:51.505Z,4.20
2023-08-01T08:58:54.886Z,2.63
2023-08-01T08:59:57.441Z,3.63
2023-08-01T09:01:02.091Z,4.20
2023-08-01T09:02:05.439Z,2.88
2023-08-01T09:03:07.778Z,4.88
2023-08-01T09:04:10.024Z,6.22
2023-08-01T09:05:12.888Z,3.83
2023-08-01T09:06:17.568Z,2.75
2023-08-01T09:07:24.427Z,2.60
2023-08-01T09:08:29.287Z,3.38
2023-08-01T09:09:32.957Z,2.60
2023-08-01T09:10:35.167Z,4.78
2023-08-01T09:11:43.753Z,3.67
2023-08-01T09:12:46.420Z,5.40
2023-08-01T09:13:49.672Z,3.58
2023-08-01T09:14:52.140Z,4.55
2023-08-01T09:15:54.552Z,4.05
2023-08-01T09:16:56.877Z,2.67
2023-08-01T09:18:01.684Z,4.85
2023-08-01T09:19:06.591Z,4.45
2023-08-01T09:20:09.315Z,4.95
2023-08-01T09:21:11.547Z,4.68
2023-08-01T09:22:15.112Z,5.00
2023-08-01T09:23:18.293Z,3.22
2023-08-01T09:24:21.792Z,4.15
2023-08-01T09:25:33.868Z,4.53
2023-08-01T09:26:36.250Z,2.92
2023-08-01T09:27:38.600Z,3.53
2023-08-01T09:28:40.983Z,4.78
2023-08-01T09:29:43.237Z,5.65
2023-08-01T09:31:03.591Z,15.48
2023-08-01T09:32:15.289Z,4.00
2023-08-01T09:33:17.683Z,2.90
2023-08-01T09:34:22.346Z,4.65
2023-08-01T09:35:24.687Z,4.05
2023-08-01T09:36:27.251Z,2.35
2023-08-01T09:37:42.844Z,4.00
2023-08-01T09:38:45.028Z,3.00
2023-08-01T09:39:54.834Z,6.65
2023-08-01T09:40:57.149Z,2.05
2023-08-01T09:42:00.645Z,3.55
2023-08-01T09:43:03.020Z,2.50
2023-08-01T09:44:05.469Z,3.55
2023-08-01T09:45:14.656Z,2.95
2023-08-01T09:46:18.157Z,3.28
2023-08-01T09:47:21.776Z,2.13
2023-08-01T09:48:26.007Z,1.98
2023-08-01T09:49:29.882Z,2.72
2023-08-01T09:50:32.205Z,2.10
2023-08-01T09:51:34.378Z,3.13
2023-08-01T09:52:36.782Z,2.30
2023-08-01T09:53:51.263Z,2.22
2023-08-01T09:54:53.603Z,2.33
2023-08-01T09:55:57.178Z,1.85
2023-08-01T09:57:01.590Z,2.13
2023-08-01T09:58:07.527Z,2.30
2023-08-01T09:59:11.831Z,2.58
2023-08-01T10:00:14.486Z,4.35
2023-08-01T10:01:19.778Z,1.23
2023-08-01T10:02:25.085Z,2.42
2023-08-01T10:03:29.586Z,2.38
2023-08-01T10:04:33.864Z,1.67
2023-08-01T10:05:39.949Z,1.38
2023-08-01T10:06:47.482Z,1.80
2023-08-01T10:07:52.921Z,3.25
2023-08-01T10:08:55.215Z,1.67
2023-08-01T10:09:59.625Z,2.13
2023-08-01T10:11:05.494Z,2.13
2023-08-01T10:12:08.810Z,2.83
2023-08-01T10:13:14.275Z,1.80
2023-08-01T10:14:17.600Z,4.72
2023-08-01T10:15:20.156Z,2.75
2023-08-01T10:16:23.261Z,5.15
2023-08-01T10:17:27.214Z,2.10
2023-08-01T10:18:30.485Z,3.42
2023-08-01T10:19:36.480Z,1.77
2023-08-01T10:20:39.592Z,2.35
2023-08-01T10:21:43.849Z,2.35
2023-08-01T10:22:46.267Z,2.03
2023-08-01T10:23:49.289Z,1.40
2023-08-01T10:24:52.471Z,1.65
2023-08-01T10:25:55.692Z,2.70
2023-08-01T10:26:58.793Z,1.92
2023-08-01T10:28:06.429Z,4.38
2023-08-01T10:29:08.716Z,1.90
2023-08-01T10:30:11.142Z,2.83
2023-08-01T10:31:15.473Z,3.17
2023-08-01T10:32:19.176Z,3.45
2023-08-01T10:33:22.474Z,3.22
2023-08-01T10:34:24.796Z,3.22
2023-08-01T10:35:40.953Z,5.53
2023-08-01T10:36:54.897Z,3.60
2023-08-01T10:38:07.347Z,5.80
2023-08-01T10:40:14.168Z,1.77
2023-08-01T10:41:27.015Z,2.38
2023-08-01T10:42:39.414Z,1.95
2023-08-01T10:44:47.011Z,1.85
2023-08-01T10:45:49.487Z,2.78
2023-08-01T10:46:54.036Z,1.75
2023-08-01T10:48:12.840Z,4.82
2023-08-01T10:49:16.389Z,4.50
2023-08-01T10:50:19.553Z,1.55
2023-08-01T10:51:21.836Z,5.95
2023-08-01T10:52:30.064Z,2.20
2023-08-01T10:53:42.096Z,1.83
2023-08-01T10:54:46.331Z,2.47
2023-08-01T10:55:49.758Z,1.90
2023-08-01T10:56:54.386Z,1.20
2023-08-01T10:57:58.377Z,2.65
2023-08-01T10:59:00.627Z,2.25
2023-08-01T11:00:06.177Z,1.95
2023-08-01T11:01:08.447Z,2.22
2023-08-01T11:02:10.816Z,2.10
2023-08-01T11:03:13.151Z,2.58
2023-08-01T11:04:20.105Z,2.17
2023-08-01T11:05:24.918Z,3.15
2023-08-01T11:06:27.249Z,1.48
2023-08-01T11:07:30.435Z,2.95
2023-08-01T11:08:40.299Z,1.42
2023-08-01T11:09:42.496Z,3.08
2023-08-01T11:10:50.748Z,1.55
2023-08-01T11:11:55.172Z,2.17
2023-08-01T11:12:58.100Z,3.70
2023-08-01T11:14:03.433Z,1.90
2023-08-01T11:15:09.137Z,4.38
2023-08-01T11:16:13.467Z,2.20
2023-08-01T11:17:15.747Z,4.82
2023-08-01T11:18:17.969Z,2.63
2023-08-01T11:19:30.921Z,3.42
2023-08-01T11:20:33.156Z,3.63
2023-08-01T11:21:37.282Z,2.45
2023-08-01T11:22:51.305Z,3.95
2023-08-01T11:23:53.621Z,2.97
2023-08-01T11:24:55.829Z,1.95
2023-08-01T11:25:58.156Z,2.80
2023-08-01T11:27:00.549Z,2.30
2023-08-01T11:28:11.314Z,1.90
2023-08-01T11:29:14.464Z,3.13
2023-08-01T11:30:16.785Z,2.35
2023-08-01T11:31:19.270Z,2.85
2023-08-01T11:32:22.612Z,3.58
2023-08-01T11:33:25.319Z,4.00
2023-08-01T11:34:28.276Z,2.92
2023-08-01T11:35:30.574Z,3.95
2023-08-01T11:36:32.928Z,1.60
2023-08-01T11:37:36.374Z,1.92
2023-08-01T11:38:39.615Z,3.40
2023-08-01T11:39:42.263Z,2.70
2023-08-01T11:40:44.987Z,3.47
2023-08-01T11:41:47.401Z,2.22
2023-08-01T11:42:52.288Z,2.53
2023-08-01T11:43:55.797Z,3.20
2023-08-01T11:45:12.214Z,2.95
2023-08-01T11:46:14.538Z,2.22
2023-08-01T11:47:19.018Z,4.88
2023-08-01T11:48:25.037Z,2.60
2023-08-01T11:49:27.275Z,3.20
2023-08-01T11:50:29.481Z,3.53
2023-08-01T11:51:31.643Z,4.13
2023-08-01T11:52:34.006Z,2.75
2023-08-01T11:53:39.874Z,4.53
2023-08-01T11:54:46.683Z,2.53
2023-08-01T11:55:50.486Z,2.00
2023-08-01T11:57:01.937Z,2.92
2023-08-01T11:58:05.675Z,3.53
2023-08-01T11:59:11.489Z,3.30
2023-08-01T12:00:23.378Z,2.63
2023-08-01T12:01:25.868Z,3.00
2023-08-01T12:02:33.073Z,1.92
2023-08-01T12:03:48.455Z,3.22
2023-08-01T12:04:51.561Z,2.10
2023-08-01T12:06:04.133Z,1.77
2023-08-01T12:07:14.677Z,2.65
2023-08-01T12:08:17.429Z,1.92
2023-08-01T12:09:21.402Z,2.95
2023-08-01T12:10:24.971Z,1.83
2023-08-01T12:11:30.710Z,3.45
2023-08-01T12:12:32.941Z,3.00
2023-08-01T12:13:35.155Z,1.98
2023-08-01T12:14:42.098Z,4.38
2023-08-01T12:15:44.325Z,5.55
2023-08-01T12:16:47.871Z,2.22
2023-08-01T12:17:50.157Z,3.25
2023-08-01T12:20:00.163Z,3.05
2023-08-01T12:21:02.879Z,2.92
2023-08-01T12:22:05.174Z,4.43
2023-08-01T12:23:07.365Z,2.17
2023-08-01T12:24:09.634Z,2.80
2023-08-01T12:25:11.818Z,4.18
2023-08-01T12:26:13.996Z,3.53
2023-08-01T12:27:16.359Z,2.88
2023-08-01T12:28:18.547Z,3.45
2023-08-01T12:29:20.780Z,2.20
2023-08-01T12:30:23.008Z,2.80
2023-08-01T12:31:25.678Z,2.70
2023-08-01T12:32:28.058Z,5.07
2023-08-01T12:33:30.412Z,2.60
2023-08-01T12:34:32.721Z,2.42
2023-08-01T12:35:35.069Z,4.22
2023-08-01T12:36:37.283Z,2.72
2023-08-01T12:37:39.567Z,3.58
2023-08-01T12:38:41.842Z,3.58
2023-08-01T12:39:44.148Z,3.30
2023-08-01T12:40:47.606Z,2.30
2023-08-01T12:41:49.930Z,4.93
2023-08-01T12:42:52.143Z,2.30
2023-08-01T12:43:54.932Z,5.85
2023-08-01T12:44:57.179Z,2.88
2023-08-01T12:45:59.509Z,3.03
2023-08-01T12:47:01.928Z,2.45
2023-08-01T12:48:04.341Z,3.50
2023-08-01T12:49:06.622Z,3.85
2023-08-01T12:50:09.350Z,2.35
2023-08-01T12:51:11.691Z,4.63
2023-08-01T12:52:23.959Z,2.65
2023-08-01T12:53:26.363Z,5.70
2023-08-01T12:54:33.460Z,3.25
2023-08-01T12:55:35.726Z,3.58
2023-08-01T12:56:39.054Z,2.60
2023-08-01T12:57:41.540Z,3.28
2023-08-01T12:58:43.782Z,1.83
2023-08-01T12:59:46.016Z,5.38
2023-08-01T13:00:48.349Z,3.45
2023-08-01T13:01:50.536Z,5.05
2023-08-01T13:02:52.793Z,2.70
2023-08-01T13:03:55.087Z,2.25
2023-08-01T13:04:57.390Z,9.10
2023-08-01T13:05:59.881Z,5.65
2023-08-01T13:07:02.170Z,2.50
2023-08-01T13:08:04.669Z,2.28
2023-08-01T13:09:07.623Z,3.38
2023-08-01T13:10:10.180Z,2.40
2023-08-01T13:11:14.021Z,2.75
2023-08-01T13:12:16.348Z,2.67
2023-08-01T13:13:18.575Z,4.15
2023-08-01T13:14:22.918Z,2.42
2023-08-01T13:15:25.541Z,2.80
2023-08-01T13:16:27.708Z,2.97
2023-08-01T13:17:29.948Z,7.85
2023-08-01T13:18:32.219Z,6.82
2023-08-01T13:19:34.490Z,3.25
2023-08-01T13:20:37.135Z,3.08
2023-08-01T13:21:39.427Z,6.13
2023-08-01T13:22:41.581Z,7.22
2023-08-01T13:23:43.849Z,2.17
2023-08-01T13:24:47.692Z,3.35
2023-08-01T13:25:50.346Z,3.80
2023-08-01T13:26:52.557Z,4.35
2023-08-01T13:27:54.799Z,3.38
2023-08-01T13:28:57.088Z,3.40
2023-08-01T13:29:59.333Z,4.03
2023-08-01T13:31:01.558Z,6.80
2023-08-01T13:32:03.915Z,6.72
2023-08-01T13:33:06.145Z,2.92
2023-08-01T13:34:08.420Z,3.00
2023-08-01T13:35:10.633Z,4.38
2023-08-01T13:36:13.174Z,5.40
2023-08-01T13:37:15.591Z,2.17
2023-08-01T13:38:18.671Z,4.65
2023-08-01T13:39:20.994Z,6.65
2023-08-01T13:40:23.267Z,4.80
2023-08-01T13:41:25.478Z,5.95
2023-08-01T13:42:27.754Z,3.80
2023-08-01T13:43:30.183Z,2.95
2023-08-01T13:44:32.501Z,3.17
2023-08-01T13:45:35.562Z,3.83
2023-08-01T13:46:37.897Z,4.60
2023-08-01T13:47:40.271Z,2.45
2023-08-01T13:48:46.138Z,4.72
2023-08-01T13:49:48.621Z,2.88
2023-08-01T13:50:50.859Z,3.55
2023-08-01T13:51:53.049Z,2.45
2023-08-01T13:52:55.566Z,5.10
2023-08-01T13:53:59.974Z,3.20
2023-08-01T13:55:03.718Z,2.60
2023-08-01T13:56:06.060Z,3.03
2023-08-01T13:57:08.266Z,2.60
2023-08-01T13:58:10.453Z,6.15
2023-08-01T13:59:12.676Z,3.38
2023-08-01T14:00:15.311Z,2.70
2023-08-01T14:01:19.758Z,2.63
2023-08-01T14:02:22.035Z,4.53
2023-08-01T14:03:24.286Z,5.88
2023-08-01T14:04:26.543Z,5.85